Time;durP1;ratioP1;P1;durP2;ratioP2;P2;SDS_P1;SDS_P2;PMS_P1;PMS_P2;Temp;Humidity;BMP_temperature;BMP_pressure;BME280_temperature;BME280_humidity;BME280_pressure;Samples;Min_cycle;Max_cycle;Signal;HPM_P1;HPM_P2
2021/08/28 00:00:16;;;;;;;;;;;13.20;99.90;;;;;;6262786;23;19966;-94
2021/08/28 00:03:08;;;;;;;;;;;13.20;99.90;;;;;;6235135;23;19908;-94
2021/08/28 00:05:59;;;;;;;;;;;13.20;99.90;;;;;;6257923;23;19923;-93
2021/08/28 00:08:46;;;;;;;;;;;13.20;99.90;;;;;;6236995;23;20299;-90
2021/08/28 00:11:33;;;;;;;;;;;13.20;99.90;;;;;;6244012;23;19946;-92
2021/08/28 00:14:23;;;;;;;;;;;13.10;99.90;;;;;;6241980;23;19919;-93
2021/08/28 00:17:10;;;;;;;;;;;13.10;99.90;;;;;;6264883;23;19924;-92
2021/08/28 00:19:59;;;;;;;;;;;13.00;99.90;;;;;;6265197;23;19926;-92
2021/08/28 00:22:53;;;;;;;;;;;12.90;99.90;;;;;;6265603;23;19931;-93
2021/08/28 00:25:40;;;;;;;;;;;12.80;99.90;;;;;;6260020;23;19943;-92
2021/08/28 00:28:27;;;;;;;;;;;12.70;99.90;;;;;;6259988;23;19942;-90
2021/08/28 00:31:14;;;;;;;;;;;12.70;99.90;;;;;;6236078;23;19920;-93
2021/08/28 00:34:01;;;;;;;;;;;12.60;99.90;;;;;;6252848;23;19971;-93
2021/08/28 00:36:49;;;;;;;;;;;12.60;99.90;;;;;;6230466;23;19927;-92
2021/08/28 00:39:42;;;;;;;;;;;12.50;99.90;;;;;;6251540;23;19924;-93
2021/08/28 00:42:29;;;;;;;;;;;12.50;99.90;;;;;;6230845;23;19931;-93
2021/08/28 00:45:18;;;;;;;;;;;12.50;99.90;;;;;;6228033;23;20218;-94
2021/08/28 00:48:07;;;;;;;;;;;12.50;99.90;;;;;;6250608;23;20014;-94
2021/08/28 00:50:54;;;;;;;;;;;12.50;99.90;;;;;;6252982;23;19924;-92
2021/08/28 00:53:49;;;;;;;;;;;12.50;99.90;;;;;;6232450;23;19923;-93
2021/08/28 00:56:41;;;;;;;;;;;12.50;99.90;;;;;;6248325;23;19950;-96
2021/08/28 00:59:29;;;;;;;;;;;12.40;99.90;;;;;;6248558;23;20002;-93
2021/08/28 01:02:19;;;;;;;;;;;12.50;99.90;;;;;;6249384;23;19935;-93
2021/08/28 01:05:11;;;;;;;;;;;12.40;99.90;;;;;;6248955;23;19932;-92
2021/08/28 01:08:09;;;;;;;;;;;12.40;99.90;;;;;;6230028;23;19919;-92
2021/08/28 01:11:10;;;;;;;;;;;12.40;99.90;;;;;;6250367;23;19981;-93
2021/08/28 01:13:58;;;;;;;;;;;12.40;99.90;;;;;;6251347;23;19923;-91
2021/08/28 01:16:49;;;;;;;;;;;12.40;99.90;;;;;;6253028;23;19946;-93
2021/08/28 01:19:37;;;;;;;;;;;12.30;99.90;;;;;;6253995;23;19958;-92
2021/08/28 01:22:24;;;;;;;;;;;12.30;99.90;;;;;;6259015;23;19920;-93
2021/08/28 01:25:14;;;;;;;;;;;12.30;99.90;;;;;;6262137;23;19970;-93
2021/08/28 01:28:07;;;;;;;;;;;12.30;99.90;;;;;;6268066;22;20018;-93
2021/08/28 01:30:55;;;;;;;;;;;12.30;99.90;;;;;;6270856;22;19977;-93
2021/08/28 01:33:47;;;;;;;;;;;12.30;99.90;;;;;;6245759;23;19951;-93
2021/08/28 01:36:35;;;;;;;;;;;12.30;99.90;;;;;;6264938;23;19973;-93
2021/08/28 01:39:23;;;;;;;;;;;12.30;99.90;;;;;;6262133;23;19931;-92
2021/08/28 01:42:11;;;;;;;;;;;12.30;99.90;;;;;;6254039;23;19973;-92
2021/08/28 01:45:01;;;;;;;;;;;12.30;99.90;;;;;;6255950;23;19983;-92
2021/08/28 01:47:50;;;;;;;;;;;12.30;99.90;;;;;;6251714;23;20045;-93
2021/08/28 01:50:40;;;;;;;;;;;12.30;99.90;;;;;;6251796;23;19945;-90
2021/08/28 01:53:27;;;;;;;;;;;12.30;99.90;;;;;;6249247;23;19920;-93
2021/08/28 01:56:15;;;;;;;;;;;12.30;99.90;;;;;;6248584;23;19985;-91
2021/08/28 01:59:02;;;;;;;;;;;12.20;99.90;;;;;;6246950;23;19924;-93
2021/08/28 02:01:49;;;;;;;;;;;12.20;99.90;;;;;;6252088;23;19931;-93
2021/08/28 02:04:39;;;;;;;;;;;12.20;99.90;;;;;;6254082;22;20303;-92
2021/08/28 02:07:26;;;;;;;;;;;12.20;99.90;;;;;;6254989;23;19927;-93
2021/08/28 02:10:19;;;;;;;;;;;12.20;99.90;;;;;;6230929;23;19919;-93
2021/08/28 02:13:16;;;;;;;;;;;12.20;99.90;;;;;;6252032;23;19989;-93
2021/08/28 02:16:16;;;;;;;;;;;12.20;99.90;;;;;;6250025;23;19941;-93
2021/08/28 02:19:10;;;;;;;;;;;12.10;99.90;;;;;;6252737;23;19920;-94
2021/08/28 02:22:02;;;;;;;;;;;12.20;99.90;;;;;;6228330;23;19978;-93
2021/08/28 02:24:54;;;;;;;;;;;12.20;99.90;;;;;;6250746;23;19935;-91
2021/08/28 02:27:46;;;;;;;;;;;12.10;99.90;;;;;;6248949;23;20180;-96
2021/08/28 02:30:37;;;;;;;;;;;12.10;99.90;;;;;;6229133;23;19939;-92
2021/08/28 02:33:24;;;;;;;;;;;12.10;99.90;;;;;;6253821;23;20026;-92
2021/08/28 02:36:15;;;;;;;;;;;12.10;99.90;;;;;;6225599;23;19931;-92
2021/08/28 02:39:02;;;;;;;;;;;12.20;99.90;;;;;;6229255;23;19920;-91
2021/08/28 02:41:52;;;;;;;;;;;12.20;99.90;;;;;;6232266;23;19927;-93
2021/08/28 02:44:41;;;;;;;;;;;12.20;99.90;;;;;;6253417;23;19920;-93
2021/08/28 02:47:30;;;;;;;;;;;12.20;99.90;;;;;;6257832;23;19960;-89
2021/08/28 02:50:18;;;;;;;;;;;12.20;99.90;;;;;;6235830;23;19924;-90
2021/08/28 02:53:11;;;;;;;;;;;12.20;99.90;;;;;;6261150;23;20347;-92
2021/08/28 02:56:00;;;;;;;;;;;12.20;99.90;;;;;;6255983;23;19919;-93
2021/08/28 02:58:50;;;;;;;;;;;12.20;99.90;;;;;;6239930;23;19915;-91
2021/08/28 03:01:41;;;;;;;;;;;12.20;99.90;;;;;;6257430;23;20022;-90
2021/08/28 03:04:29;;;;;;;;;;;12.20;99.90;;;;;;6256496;23;19961;-94
2021/08/28 03:07:19;;;;;;;;;;;12.20;99.90;;;;;;6254978;23;20231;-92
2021/08/28 03:10:09;;;;;;;;;;;12.10;99.90;;;;;;6258587;23;19919;-95
2021/08/28 03:12:57;;;;;;;;;;;12.10;99.90;;;;;;6255158;23;19946;-94
2021/08/28 03:15:45;;;;;;;;;;;12.10;99.90;;;;;;6218103;23;19919;-95
2021/08/28 03:18:37;;;;;;;;;;;12.10;99.90;;;;;;6253955;23;19970;-91
2021/08/28 03:21:26;;;;;;;;;;;12.10;99.90;;;;;;6233232;23;19919;-94
2021/08/28 03:24:27;;;;;;;;;;;12.10;99.90;;;;;;6165081;23;19956;-92
2021/08/28 03:27:15;;;;;;;;;;;12.10;99.90;;;;;;6170476;23;19920;-93
2021/08/28 03:30:14;;;;;;;;;;;12.10;99.90;;;;;;6167255;23;19921;-93
2021/08/28 03:33:01;;;;;;;;;;;12.10;99.90;;;;;;6164546;23;19921;-95
2021/08/28 03:35:51;;;;;;;;;;;12.00;99.90;;;;;;6162659;23;20024;-90
2021/08/28 03:38:39;;;;;;;;;;;12.00;99.90;;;;;;6163478;23;19920;-93
2021/08/28 03:41:26;;;;;;;;;;;12.10;99.90;;;;;;6165299;23;19928;-92
2021/08/28 03:44:25;;;;;;;;;;;12.10;99.90;;;;;;6164436;23;19908;-94
2021/08/28 03:47:14;;;;;;;;;;;12.00;99.90;;;;;;6164189;23;19920;-93
2021/08/28 03:50:01;;;;;;;;;;;12.00;99.90;;;;;;6165919;23;19995;-94
2021/08/28 03:52:49;;;;;;;;;;;12.00;99.90;;;;;;6164563;23;19999;-93
2021/08/28 03:55:36;;;;;;;;;;;12.00;99.90;;;;;;6164009;23;20178;-91
2021/08/28 03:58:24;;;;;;;;;;;12.10;99.90;;;;;;6168959;23;19912;-91
2021/08/28 04:01:11;;;;;;;;;;;12.10;99.90;;;;;;6200971;23;20002;-92
2021/08/28 04:03:58;;;;;;;;;;;12.10;99.90;;;;;;6232992;23;19924;-91
2021/08/28 04:18:33;;;;;;;;;;;12.10;99.90;;;;;;5973131;24;20299;-89
2021/08/28 04:21:27;;;;;;;;;;;12.10;99.90;;;;;;6014082;23;19922;-90
2021/08/28 04:35:31;;;;;;;;;;;12.10;99.90;;;;;;5973705;23;20281;-89
2021/08/28 04:42:54;;;;;;;;;;;;;;;;;;;;;
2021/08/28 04:46:36;;;;;;;;;;;;;;;;;;;;;
2021/08/28 04:50:01;;;;;;;;;;;12.10;99.90;;;;;;5929211;24;19971;-91
2021/08/28 05:02:00;;;;;;;;;;;;;;;;;;;;;
2021/08/28 05:05:42;;;;;;;;;;;12.10;99.90;;;;;;5815082;24;19912;-94
2021/08/28 07:47:35;;;;;;;;;;;15.80;99.90;;;;;;6296639;22;20349;-94
2021/08/28 07:59:28;;;;;;;;;;;15.30;99.90;;;;;;6196960;22;19912;-92
2021/08/28 08:54:34;;;;;;;;;;;17.90;99.90;;;;;;6164447;23;19921;-89
2021/08/28 08:57:39;;;;;;;;;;;;;;;;;;;;;
2021/08/28 09:01:13;;;;;;;;;;;19.60;99.90;;;;;;6057516;23;19989;-93
2021/08/28 09:04:49;;;;;;;;;;;18.70;99.90;;;;;;6040072;23;19914;-91
2021/08/28 09:11:30;;;;;;;;;;;17.00;99.90;;;;;;5873915;24;19963;-94
2021/08/28 09:14:53;;;;;;;;;;;16.70;99.90;;;;;;5961589;23;19969;-93
2021/08/28 09:17:41;;;;;;;;;;;16.60;99.90;;;;;;5975006;23;19936;-88
2021/08/28 09:20:31;;;;;;;;;;;16.50;99.90;;;;;;6073959;23;19945;-91
2021/08/28 09:23:39;;;;;;;;;;;16.60;99.90;;;;;;6045975;23;19925;-89
2021/08/28 09:26:33;;;;;;;;;;;16.60;99.90;;;;;;6044070;23;19926;-91
2021/08/28 09:29:32;;;;;;;;;;;16.70;99.90;;;;;;6040431;23;20088;-91
2021/08/28 09:32:40;;;;;;;;;;;16.60;99.90;;;;;;6039626;23;19922;-93
2021/08/28 09:35:48;;;;;;;;;;;16.60;99.90;;;;;;6118646;23;19915;-91
2021/08/28 09:39:19;;;;;;;;;;;16.50;99.90;;;;;;6123912;23;19921;-91
2021/08/28 09:42:37;;;;;;;;;;;16.50;99.90;;;;;;6251477;23;19959;-91
2021/08/28 09:46:10;;;;;;;;;;;16.50;99.90;;;;;;6259900;23;19966;-92
2021/08/28 09:49:33;;;;;;;;;;;16.30;99.90;;;;;;6249854;23;20276;-90
2021/08/28 09:52:24;;;;;;;;;;;16.10;99.90;;;;;;6249842;23;19920;-92
2021/08/28 09:55:23;;;;;;;;;;;16.00;99.90;;;;;;6250176;23;19946;-91
2021/08/28 09:58:16;;;;;;;;;;;15.90;99.90;;;;;;6226692;23;19920;-92
2021/08/28 10:01:44;;;;;;;;;;;15.80;99.90;;;;;;6245347;23;19928;-90
2021/08/28 10:05:12;;;;;;;;;;;;;;;;;;;;;
2021/08/28 10:08:37;;;;;;;;;;;15.40;99.90;;;;;;6247916;23;20221;-91
2021/08/28 10:11:29;;;;;;;;;;;15.10;99.90;;;;;;6246586;23;19919;-91
2021/08/28 10:14:39;;;;;;;;;;;14.70;99.90;;;;;;6246752;23;19939;-90
2021/08/28 10:17:58;;;;;;;;;;;14.40;99.90;;;;;;6251919;23;20199;-93
2021/08/28 10:20:45;;;;;;;;;;;14.10;99.90;;;;;;6258040;22;19919;-91
2021/08/28 10:23:58;;;;;;;;;;;13.90;99.90;;;;;;6253400;23;20468;-91
2021/08/28 10:27:37;;;;;;;;;;;;;;;;;;;;;
2021/08/28 10:30:50;;;;;;;;;;;13.70;99.90;;;;;;6186751;23;19924;-91
2021/08/28 10:33:58;;;;;;;;;;;13.60;99.90;;;;;;6068032;23;20312;-91
2021/08/28 10:48:15;;;;;;;;;;;13.40;99.90;;;;;;5932628;24;19983;-93
2021/08/28 13:58:10;;;;;;;;;;;14.70;99.90;;;;;;6250008;22;19934;-93
2021/08/28 14:05:13;;;;;;;;;;;14.10;99.90;;;;;;6168338;23;19924;-92
2021/08/28 14:08:40;;;;;;;;;;;;;;;;;;;;;
2021/08/28 14:11:59;;;;;;;;;;;13.90;99.90;;;;;;6248294;23;19919;-93
2021/08/28 14:15:11;;;;;;;;;;;13.90;99.90;;;;;;6231863;23;19973;-92
2021/08/28 14:18:31;;;;;;;;;;;;;;;;;;;;;
2021/08/28 14:21:38;;;;;;;;;;;14.10;99.90;;;;;;6138164;23;19931;-93
2021/08/28 14:28:20;;;;;;;;;;;;;;;;;;;;;
2021/08/28 14:31:52;;;;;;;;;;;;;;;;;;;;;
2021/08/28 14:34:58;;;;;;;;;;;14.30;99.90;;;;;;6040303;23;19922;-93
2021/08/28 14:42:14;;;;;;;;;;;14.40;99.90;;;;;;5995155;24;19927;-92
2021/08/28 14:45:04;;;;;;;;;;;14.20;99.90;;;;;;5980107;23;19945;-89
2021/08/28 14:55:25;;;;;;;;;;;14.30;99.90;;;;;;5903505;24;20330;-92
2021/08/28 14:58:16;;;;;;;;;;;14.40;99.90;;;;;;5899429;23;19919;-91
2021/08/28 15:01:28;;;;;;;;;;;14.50;99.90;;;;;;6040031;23;19922;-93
2021/08/28 15:04:36;;;;;;;;;;;14.60;99.90;;;;;;6064250;23;19996;-93
2021/08/28 15:07:48;;;;;;;;;;;14.70;99.90;;;;;;6132115;23;19941;-92
2021/08/28 15:15:01;;;;;;;;;;;;;;;;;;;;;
2021/08/28 15:21:49;;;;;;;;;;;14.80;99.90;;;;;;5984482;24;20204;-93
2021/08/28 15:25:14;;;;;;;;;;;14.80;99.90;;;;;;5983368;24;20286;-90
2021/08/28 15:28:26;;;;;;;;;;;14.80;99.90;;;;;;5906391;24;19931;-93
2021/08/28 15:35:00;;;;;;;;;;;14.90;99.90;;;;;;5921074;24;19963;-91
2021/08/28 15:38:17;;;;;;;;;;;;;;;;;;;;;
2021/08/28 15:42:05;;;;;;;;;;;;;;;;;;;;;
2021/08/28 15:48:10;;;;;;;;;;;15.10;99.90;;;;;;5919355;24;19999;-89
2021/08/28 15:55:11;;;;;;;;;;;;;;;;;;;;;
2021/08/28 15:58:06;;;;;;;;;;;15.10;99.90;;;;;;5997315;23;19926;-89
2021/08/28 16:01:16;;;;;;;;;;;15.20;99.90;;;;;;6103346;23;19931;-90
2021/08/28 16:04:42;;;;;;;;;;;15.30;99.90;;;;;;6113580;23;19925;-93
2021/08/28 16:11:57;;;;;;;;;;;15.40;99.90;;;;;;6159782;23;19963;-93
2021/08/28 16:15:48;;;;;;;;;;;15.60;99.90;;;;;;6072367;23;19932;-91
2021/08/28 16:19:41;;;;;;;;;;;;;;;;;;;;;
2021/08/28 16:30:31;;;;;;;;;;;;;;;;;;;;;
2021/08/28 16:37:25;;;;;;;;;;;;;;;;;;;;;
2021/08/28 16:48:40;;;;;;;;;;;15.70;99.90;;;;;;4897772;29;19923;-92
2021/08/28 17:03:44;;;;;;;;;;;15.30;99.90;;;;;;4888739;29;19915;-94
2021/08/28 17:07:05;;;;;;;;;;;15.30;99.90;;;;;;4889333;29;19998;-92
2021/08/28 17:48:45;;;;;;;;;;;13.80;99.90;;;;;;4674292;30;19930;-92
2021/08/28 17:55:54;;;;;;;;;;;13.70;99.90;;;;;;4734944;30;19969;-91
2021/08/28 18:17:02;;;;;;;;;;;;;;;;;;;;;
2021/08/28 18:20:07;;;;;;;;;;;;;;;;;;;;;
2021/08/28 18:23:38;;;;;;;;;;;12.40;99.90;;;;;;4905241;29;19933;-90
2021/08/28 18:41:48;;;;;;;;;;;;;;;;;;;;;
2021/08/28 18:45:14;;;;;;;;;;;11.30;99.90;;;;;;4886210;29;19991;-90
2021/08/28 18:48:31;;;;;;;;;;;;;;;;;;;;;
2021/08/28 18:52:40;;;;;;;;;;;;;;;;;;;;;
2021/08/28 19:09:06;;;;;;;;;;;;;;;;;;;;;
2021/08/28 19:15:56;;;;;;;;;;;10.60;99.90;;;;;;4876926;29;19942;-93
2021/08/28 19:19:48;;;;;;;;;;;;;;;;;;;;;
2021/08/28 19:26:24;;;;;;;;;;;10.50;99.90;;;;;;4942993;29;19935;-91
2021/08/28 19:29:28;;;;;;;;;;;10.40;99.90;;;;;;4975754;28;19926;-92
2021/08/28 19:32:51;;;;;;;;;;;10.40;99.90;;;;;;5003100;28;19936;-93
2021/08/28 19:36:43;;;;;;;;;;;10.30;99.90;;;;;;5036287;28;20007;-92
2021/08/28 19:40:47;;;;;;;;;;;;;;;;;;;;;
2021/08/28 19:43:54;;;;;;;;;;;10.20;99.90;;;;;;4957133;28;20005;-92
2021/08/28 19:47:03;;;;;;;;;;;10.30;99.90;;;;;;4971950;28;20001;-92
2021/08/28 19:49:50;;;;;;;;;;;10.30;99.90;;;;;;4962651;28;19942;-91
2021/08/28 19:52:55;;;;;;;;;;;10.40;99.90;;;;;;4977982;28;19925;-90
2021/08/28 19:56:33;;;;;;;;;;;;;;;;;;;;;
2021/08/28 19:59:50;;;;;;;;;;;10.50;99.90;;;;;;4895574;29;20423;-91
2021/08/28 20:03:03;;;;;;;;;;;10.40;99.90;;;;;;4919057;29;19995;-92
2021/08/28 20:05:54;;;;;;;;;;;10.40;99.90;;;;;;4926971;29;20032;-92
2021/08/28 20:08:55;;;;;;;;;;;10.40;99.90;;;;;;4936552;29;19934;-92
2021/08/28 20:16:11;;;;;;;;;;;;;;;;;;;;;
2021/08/28 20:22:35;;;;;;;;;;;10.30;99.90;;;;;;4941272;29;19942;-92
2021/08/28 20:36:53;;;;;;;;;;;10.20;99.90;;;;;;5010783;28;19984;-92
2021/08/28 20:39:50;;;;;;;;;;;10.10;99.90;;;;;;5061569;28;19925;-91
2021/08/28 20:43:23;;;;;;;;;;;10.10;99.90;;;;;;5063506;28;19951;-92
2021/08/28 20:57:45;;;;;;;;;;;10.20;99.90;;;;;;4965116;29;19926;-91
2021/08/28 21:01:33;;;;;;;;;;;10.30;99.90;;;;;;4869817;29;20022;-91
2021/08/28 21:12:02;;;;;;;;;;;;;;;;;;;;;
2021/08/28 21:15:04;;;;;;;;;;;10.70;99.90;;;;;;4864406;29;19959;-89
2021/08/28 21:17:59;;;;;;;;;;;10.70;99.90;;;;;;4901852;29;19935;-92
2021/08/28 21:21:07;;;;;;;;;;;10.70;99.90;;;;;;4884251;29;20069;-90
2021/08/28 21:24:00;;;;;;;;;;;10.70;99.90;;;;;;4889276;29;20030;-90
2021/08/28 21:27:01;;;;;;;;;;;10.70;99.90;;;;;;4868286;29;19942;-90
2021/08/28 21:29:58;;;;;;;;;;;;;;;;;;;;;
2021/08/28 21:33:06;;;;;;;;;;;10.60;99.90;;;;;;4949769;29;19926;-90
2021/08/28 21:35:53;;;;;;;;;;;10.60;99.90;;;;;;4946019;29;19938;-91
2021/08/28 21:39:32;;;;;;;;;;;;;;;;;;;;;
2021/08/28 21:42:31;;;;;;;;;;;10.60;99.90;;;;;;4947613;28;19964;-91
2021/08/28 21:45:32;;;;;;;;;;;10.50;99.90;;;;;;5004750;28;20265;-90
2021/08/28 21:48:26;;;;;;;;;;;10.50;99.90;;;;;;5034004;28;20399;-89
2021/08/28 21:51:42;;;;;;;;;;;10.50;99.90;;;;;;5014990;28;20103;-93
2021/08/28 22:02:12;;;;;;;;;;;10.20;99.90;;;;;;5001608;28;20308;-89
2021/08/28 22:05:13;;;;;;;;;;;10.10;99.90;;;;;;4989992;28;19933;-91
2021/08/28 22:08:30;;;;;;;;;;;10.20;99.90;;;;;;5002296;28;19981;-92
2021/08/28 22:11:38;;;;;;;;;;;10.10;99.90;;;;;;4926843;29;19915;-92
2021/08/28 22:14:51;;;;;;;;;;;10.10;99.90;;;;;;4918004;29;20038;-92
2021/08/28 22:21:47;;;;;;;;;;;9.90;99.90;;;;;;5000545;28;20600;-92
2021/08/28 22:29:18;;;;;;;;;;;;;;;;;;;;;
2021/08/28 22:32:48;;;;;;;;;;;9.80;99.90;;;;;;5063939;28;20077;-91
2021/08/28 22:35:59;;;;;;;;;;;9.80;99.90;;;;;;5075554;28;20359;-91
2021/08/28 22:39:34;;;;;;;;;;;9.80;99.90;;;;;;5073549;28;19936;-91
2021/08/28 22:42:25;;;;;;;;;;;9.80;99.90;;;;;;5076847;28;19939;-91
2021/08/28 22:45:22;;;;;;;;;;;9.80;99.90;;;;;;5063387;28;20341;-90
2021/08/28 22:48:15;;;;;;;;;;;9.80;99.90;;;;;;5064838;28;19929;-88
2021/08/28 22:51:21;;;;;;;;;;;9.70;99.90;;;;;;5064932;28;20345;-93
2021/08/28 22:54:18;;;;;;;;;;;9.70;99.90;;;;;;5077340;28;19929;-90
2021/08/28 22:57:05;;;;;;;;;;;9.70;99.90;;;;;;5061995;28;19940;-90
2021/08/28 23:00:09;;;;;;;;;;;9.80;99.90;;;;;;5053298;28;20012;-91
2021/08/28 23:03:06;;;;;;;;;;;9.90;99.90;;;;;;5060084;28;19925;-90
2021/08/28 23:05:56;;;;;;;;;;;9.90;99.90;;;;;;5062406;28;20025;-91
2021/08/28 23:09:00;;;;;;;;;;;9.80;99.90;;;;;;5063016;28;19928;-93
2021/08/28 23:12:19;;;;;;;;;;;;;;;;;;;;;
2021/08/28 23:15:24;;;;;;;;;;;;;;;;;;;;;
2021/08/28 23:18:35;;;;;;;;;;;9.90;99.90;;;;;;4993669;28;20362;-91
2021/08/28 23:21:29;;;;;;;;;;;9.80;99.90;;;;;;4992887;28;19952;-92
2021/08/28 23:24:22;;;;;;;;;;;9.80;99.90;;;;;;4983208;28;19930;-92
2021/08/28 23:27:15;;;;;;;;;;;9.90;99.90;;;;;;5007777;28;19937;-92
2021/08/28 23:30:19;;;;;;;;;;;9.90;99.90;;;;;;5006931;28;20424;-93
2021/08/28 23:33:07;;;;;;;;;;;9.90;99.90;;;;;;5003687;28;19972;-90
2021/08/28 23:35:57;;;;;;;;;;;9.90;99.90;;;;;;5060696;28;19951;-92
2021/08/28 23:38:45;;;;;;;;;;;10.00;99.90;;;;;;5085224;28;19990;-92
2021/08/28 23:41:40;;;;;;;;;;;10.00;99.90;;;;;;5084863;28;19928;-91
2021/08/28 23:44:31;;;;;;;;;;;10.10;99.90;;;;;;5065518;28;19950;-90
2021/08/28 23:47:28;;;;;;;;;;;10.10;99.90;;;;;;5075067;28;20003;-90
2021/08/28 23:50:15;;;;;;;;;;;10.10;99.90;;;;;;5062130;28;19924;-90
2021/08/28 23:53:04;;;;;;;;;;;10.10;99.90;;;;;;5048608;28;20276;-90
2021/08/28 23:55:51;;;;;;;;;;;10.10;99.90;;;;;;5075483;28;19951;-92
2021/08/28 23:58:40;;;;;;;;;;;10.20;99.90;;;;;;5063201;28;19964;-90
